Portada
METAR-TAF:

METAR-TAF

Aeroports :

Pohnpei, Micronèsia

latitud: 06-59N, longitud: 158-12E, altitud: 2 m

Observació

L'informe es va fer fa 10 hores i 4 minuts, a les 05:59 UTC
Vent 10 kt del Est/Nord-Est
Temperatura 31°C
Humitat 75%
Pressió 1009 hPa
Visibilitat: 24.1 km
Núvols disperses a una alçada de 1800 ft
Cel ennuvolat a una alçada de 30000 ft

METAR: PTPN 290559Z 06010KT 15SM SCT018 BKN300 31/26 A2981 RMK LAST

Hora: 03:03 (16:03 UTC)

Pronòstic

L'informe es va fer fa 10 hores i 28 minuts, a les 05:35 UTC
Pronòstic vàlid del 29 a les 06 UTC al 30 a les 06 UTC
Vent 10 kt del Nord-Est
Visibilitat: 10 km
Núvols disperses a una alçada de 1800 ft
xàfecs en les proximitats,

TAF: PTPN 290535Z 2906/3006 05010KT P6SM VCSH SCT018

Observacions i pronòstics meteorològics de més de 4000 aeroports (METAR i TAF).

Les estacions disponibles són els punts grocs i vermells al mapa.

Posi el ratolí al punt desitjat per veure el nom de l'estació.

Feu clic per veure les observacions i els pronòstics meteorològics.

Per canviar el mapa: feu clic els botons verds amb una creu de color negre per apropar; al botó verd amb un guió per allunyar la imatge; o en les fletxes verdes per a mapes adjacents.


METAR-TAF: